Ana Sayfa
METAR-TAF:

METAR-TAF

Havaalanları :

Santoron, Yunanistan

Enlem: 36-24N, Boylam: 025-29E, yükseklik: 38 m

Güncel hava durumu gözlemi

Rapor saat 22:50 UTC de 27 dakika önce yapıldı.
Rüzgar kuzeydan 19 kt
Sıcaklık 12°C
Nem 50%
Basınç 1024 hPa
Görüş mesafesi 10 km veya daha fazla
2500 ft yükseklikte parçalı bulutlu

METAR: LGSR 202250Z 36019KT 9999 SCT025 12/02 Q1024

Saat: 02:17 (23:17 UTC)

Tahmin

Rapor saat 17:00 UTC de 6 saat ve 17 dakika önce yapıldı.
Ayın 20'si saat 18 UTC'den ayın 21'si saat 18 UTC'ye kadar geçerli Tahmin
Rüzgar kuzeydan 22 kt
Görüş mesafesi 10 km veya daha fazla
2000 ft yükseklikte parçalı bulutlu

TAF: LGSR 201700Z 2018/2118 36022KT 9999 SCT020

4.000'den fazla havaalanı için hava durumu gözlemleri ve tahminleri (METAR ve TAF raporları).

Kullanılabilir istasyonlar harita üzerinde sarı ve kırmızı noktalarla gösterilir.

İstasyonun adını görmek için fareyi noktanın üzerinde gezdirin.

Sonrasında hava gözlem ve tahminlerini görmek için tıklayın.

Haritayı değiştirmek için: yaklaştırmak için siyah artı işaretli yeşil düğmeye ve uzaklaştırmak için de eksi işaretli düğmeye hızla tıklayın; bitişik haritalar için yeşil okları kullanın.


METAR-TAF: